Time;durP1;ratioP1;P1;durP2;ratioP2;P2;SDS_P1;SDS_P2;PMS_P1;PMS_P2;Temp;Humidity;BMP_temperature;BMP_pressure;BME280_temperature;BME280_humidity;BME280_pressure;Samples;Min_cycle;Max_cycle;Signal;HPM_P1;HPM_P2
2021/05/19 00:01:40;;;;;;;7.10;5.92;;;;;;;8.46;77.32;99716.14;2043747;85;21094;-70
2021/05/19 00:04:42;;;;;;;9.13;6.55;;;;;;;8.50;77.45;99713.48;2058797;84;21180;-70
2021/05/19 00:07:46;;;;;;;7.95;6.40;;;;;;;8.49;77.33;99719.27;2044524;85;21472;-74
2021/05/19 00:10:48;;;;;;;9.20;6.97;;;;;;;8.48;77.38;99712.84;2059056;85;21107;-72
2021/05/19 00:13:50;;;;;;;8.10;6.17;;;;;;;8.47;77.37;99711.17;2037942;85;21174;-75
2021/05/19 00:16:51;;;;;;;7.40;6.55;;;;;;;8.43;77.23;99714.64;2059350;85;21053;-71
2021/05/19 00:19:53;;;;;;;7.65;5.70;;;;;;;8.39;77.22;99713.80;2041910;85;21545;-69
2021/05/19 00:22:54;;;;;;;8.08;6.50;;;;;;;8.36;77.35;99710.13;2058567;85;21150;-72
2021/05/19 00:25:56;;;;;;;7.15;6.03;;;;;;;8.33;77.32;99707.81;2041555;85;22360;-70
2021/05/19 00:28:58;;;;;;;10.23;7.17;;;;;;;8.32;77.37;99705.67;2059668;85;22390;-69
2021/05/19 00:32:04;;;;;;;8.55;7.15;;;;;;;8.35;77.57;99706.66;2038277;85;21149;-77
2021/05/19 00:35:06;;;;;;;11.05;6.53;;;;;;;8.36;77.62;99706.98;2057352;85;21169;-78
2021/05/19 00:38:08;;;;;;;10.15;7.35;;;;;;;8.34;77.52;99705.52;2041591;85;21090;-71
2021/05/19 00:41:15;;;;;;;8.50;7.05;;;;;;;8.29;77.52;99709.96;2058580;85;21166;-74
2021/05/19 00:44:21;;;;;;;10.53;6.33;;;;;;;8.25;77.55;99705.97;2041952;85;21115;-75
2021/05/19 00:47:33;;;;;;;8.63;7.03;;;;;;;8.25;77.82;99711.25;2056808;85;21077;-69
2021/05/19 00:50:37;;;;;;;9.30;7.12;;;;;;;8.26;77.87;99716.89;2058633;85;21111;-70
2021/05/19 00:53:39;;;;;;;9.35;7.42;;;;;;;8.27;77.97;99717.22;2044207;85;21115;-74
2021/05/19 00:56:41;;;;;;;9.98;7.08;;;;;;;8.27;77.95;99722.00;2058031;85;21066;-71
2021/05/19 00:59:44;;;;;;;11.50;7.97;;;;;;;8.27;77.94;99723.32;2044431;85;21793;-70
2021/05/19 01:02:46;;;;;;;10.63;7.70;;;;;;;8.24;77.79;99712.25;2033452;85;22749;-72
2021/05/19 01:05:52;;;;;;;9.90;7.30;;;;;;;8.18;77.69;99718.19;2004530;87;21212;-76
2021/05/19 01:12:18;;;;;;;10.88;6.80;;;;;;;8.13;78.10;99731.88;2064301;84;21139;-72
2021/05/19 01:15:20;;;;;;;9.10;6.30;;;;;;;8.08;77.82;99737.66;2065169;84;21095;-72
2021/05/19 01:18:22;;;;;;;8.60;6.03;;;;;;;7.95;77.54;99736.45;2063712;84;21170;-73
2021/05/19 01:21:24;;;;;;;8.80;6.62;;;;;;;7.87;77.47;99741.20;2064623;84;21028;-70
2021/05/19 01:24:26;;;;;;;10.35;6.37;;;;;;;7.76;77.41;99734.87;2035629;84;21106;-71
2021/05/19 01:27:28;;;;;;;10.88;6.90;;;;;;;7.72;77.42;99738.83;2065674;84;21115;-70
2021/05/19 01:30:35;;;;;;;13.10;7.95;;;;;;;7.64;77.65;99739.61;2063573;84;21087;-72
2021/05/19 01:33:39;;;;;;;7.87;7.08;;;;;;;7.57;77.77;99741.20;2062851;84;21228;-69
2021/05/19 01:36:41;;;;;;;8.08;6.92;;;;;;;7.47;77.97;99743.97;2065595;84;21158;-70
2021/05/19 01:39:47;;;;;;;10.43;7.20;;;;;;;7.38;78.19;99748.37;2065497;84;21050;-69
2021/05/19 01:42:50;;;;;;;9.43;6.90;;;;;;;7.36;78.60;99742.41;2061224;84;21104;-72
2021/05/19 01:46:07;;;;;;;11.22;6.90;;;;;;;7.40;78.90;99737.63;2061473;84;21164;-72
2021/05/19 01:49:09;;;;;;;10.13;7.22;;;;;;;7.40;78.82;99737.63;2063109;84;22343;-73
2021/05/19 01:52:13;;;;;;;10.45;7.30;;;;;;;7.49;78.85;99743.79;2062789;84;21127;-70
2021/05/19 01:55:17;;;;;;;8.08;6.72;;;;;;;7.56;78.95;99747.48;2065733;84;21075;-70
2021/05/19 01:58:22;;;;;;;9.05;6.85;;;;;;;7.61;78.91;99742.06;2064407;84;21113;-70
2021/05/19 02:01:27;;;;;;;8.45;7.05;;;;;;;7.67;78.79;99750.34;2065455;84;21649;-71
2021/05/19 02:04:35;;;;;;;8.58;7.65;;;;;;;7.67;78.59;99747.70;2066707;84;21618;-70
2021/05/19 02:07:36;;;;;;;10.13;7.47;;;;;;;7.64;78.55;99744.39;2078986;84;21172;-72
2021/05/19 02:10:38;;;;;;;11.48;7.37;;;;;;;7.66;78.52;99751.31;2077028;84;21100;-73
2021/05/19 02:13:40;;;;;;;8.35;6.58;;;;;;;7.64;78.46;99750.16;2080081;84;21390;-71
2021/05/19 02:16:44;;;;;;;9.18;6.55;;;;;;;7.60;78.34;99759.37;2080479;84;21094;-70
2021/05/19 02:19:46;;;;;;;7.40;5.85;;;;;;;7.53;78.38;99760.49;2078110;84;22365;-70
2021/05/19 02:22:48;;;;;;;8.23;6.42;;;;;;;7.49;78.32;99751.24;2078474;84;21196;-74
2021/05/19 02:25:52;;;;;;;8.60;6.42;;;;;;;7.49;78.41;99760.48;2081072;84;21134;-71
2021/05/19 02:28:56;;;;;;;8.53;6.72;;;;;;;7.49;78.41;99761.80;2080500;84;21057;-69
2021/05/19 02:31:58;;;;;;;10.55;6.62;;;;;;;7.48;78.41;99761.45;2079792;84;21148;-72
2021/05/19 02:35:00;;;;;;;10.15;7.80;;;;;;;7.49;78.43;99760.48;2077298;84;21102;-78
2021/05/19 02:38:06;;;;;;;8.88;7.08;;;;;;;7.47;78.40;99757.66;2083104;84;21128;-79
2021/05/19 02:41:10;;;;;;;9.70;7.17;;;;;;;7.42;78.48;99746.23;2080230;84;21159;-70
2021/05/19 02:44:12;;;;;;;7.83;6.95;;;;;;;7.39;78.61;99753.97;2079531;84;21079;-70
2021/05/19 02:47:13;;;;;;;9.48;6.62;;;;;;;7.41;78.69;99758.61;2078505;84;21515;-70
2021/05/19 02:50:16;;;;;;;13.62;7.30;;;;;;;7.40;78.75;99756.97;2078724;84;21676;-75
2021/05/19 02:53:18;;;;;;;12.00;7.50;;;;;;;7.43;78.79;99754.48;2081657;84;21134;-80
2021/05/19 02:56:19;;;;;;;9.28;7.30;;;;;;;7.46;78.82;99758.16;2080077;84;21056;-71
2021/05/19 02:59:20;;;;;;;10.68;8.35;;;;;;;7.50;79.04;99756.03;2080773;84;21087;-69
2021/05/19 03:02:21;;;;;;;9.53;7.72;;;;;;;7.50;78.91;99759.98;2052994;84;21062;-72
2021/05/19 03:05:22;;;;;;;;;;;;;;;7.48;78.73;99768.05;2079208;84;21111;-71
2021/05/19 03:08:23;;;;;;;13.75;8.15;;;;;;;7.44;78.81;99760.11;2065642;84;20298;-69
2021/05/19 03:11:25;;;;;;;13.62;7.70;;;;;;;7.44;78.86;99767.22;2065161;84;21567;-70
2021/05/19 03:14:26;;;;;;;9.25;7.67;;;;;;;7.40;78.90;99764.03;2065061;84;21651;-69
2021/05/19 03:17:27;;;;;;;11.48;8.10;;;;;;;7.41;79.06;99761.25;2064874;84;21071;-71
2021/05/19 03:20:29;;;;;;;7.97;6.45;;;;;;;7.44;79.09;99772.49;2064832;84;21132;-71
2021/05/19 03:23:31;;;;;;;9.98;7.22;;;;;;;7.43;78.81;99773.45;2064041;84;21159;-72
2021/05/19 03:26:33;;;;;;;11.38;7.72;;;;;;;7.39;78.92;99771.63;2064106;84;21812;-74
2021/05/19 03:29:34;;;;;;;10.43;6.85;;;;;;;7.40;79.18;99776.77;2066136;84;21563;-71
2021/05/19 03:32:36;;;;;;;11.18;7.55;;;;;;;7.51;79.15;99783.58;2067492;84;21068;-70
2021/05/19 03:35:37;;;;;;;7.78;6.00;;;;;;;7.69;79.22;99782.72;2066181;84;21636;-72
2021/05/19 03:38:39;;;;;;;6.80;6.08;;;;;;;7.95;79.03;99785.33;2062850;84;21217;-74
2021/05/19 03:41:41;;;;;;;7.90;6.75;;;;;;;8.23;78.93;99790.73;2064412;84;21614;-71
2021/05/19 03:44:42;;;;;;;7.60;6.05;;;;;;;8.60;78.84;99799.30;2065124;84;21774;-76
2021/05/19 03:47:50;;;;;;;8.70;6.75;;;;;;;8.99;78.50;99794.23;2063714;84;21672;-71
2021/05/19 03:50:50;;;;;;;9.35;7.28;;;;;;;9.36;78.20;99800.36;2066552;84;21114;-74
2021/05/19 03:53:52;;;;;;;8.20;6.45;;;;;;;9.79;77.88;99796.97;2066134;84;21127;-74
2021/05/19 03:56:53;;;;;;;9.05;7.03;;;;;;;10.01;77.34;99801.23;2066134;84;21056;-70
2021/05/19 03:59:55;;;;;;;8.75;7.53;;;;;;;10.11;77.01;99803.19;2064452;84;21055;-72
2021/05/19 04:02:56;;;;;;;11.80;7.67;;;;;;;10.02;76.74;99795.77;2062141;84;21912;-72
2021/05/19 04:05:58;;;;;;;9.40;7.92;;;;;;;9.94;76.82;99797.59;2070199;84;21672;-70
2021/05/19 04:08:59;;;;;;;9.93;7.72;;;;;;;9.90;76.75;99797.62;2074146;84;21734;-72
2021/05/19 04:12:00;;;;;;;11.48;6.83;;;;;;;10.05;76.94;99804.70;2049400;84;21118;-71
2021/05/19 04:15:03;;;;;;;9.93;7.70;;;;;;;10.06;76.44;99798.90;2073872;84;21110;-70
2021/05/19 04:18:05;;;;;;;9.40;7.62;;;;;;;9.96;76.38;99811.00;2073595;84;21003;-71
2021/05/19 04:21:07;;;;;;;10.38;7.85;;;;;;;9.92;76.38;99810.21;2074887;84;21110;-75
2021/05/19 04:24:09;;;;;;;9.13;7.97;;;;;;;10.18;76.98;99808.13;2075518;84;21137;-73
2021/05/19 04:27:10;;;;;;;9.58;7.45;;;;;;;10.84;77.20;99815.77;2072278;84;21617;-70
2021/05/19 04:30:13;;;;;;;9.08;7.28;;;;;;;11.32;76.40;99819.06;2075158;84;21089;-70
2021/05/19 04:33:16;;;;;;;9.10;7.03;;;;;;;11.64;75.15;99812.14;2073752;84;21087;-73
2021/05/19 04:36:17;;;;;;;9.98;7.70;;;;;;;11.64;75.15;99812.14;2072958;84;21162;-71
2021/05/19 04:39:19;;;;;;;14.55;7.95;;;;;;;11.57;74.48;99803.26;2070148;84;21113;-73
2021/05/19 04:42:20;;;;;;;10.80;7.40;;;;;;;11.73;74.17;99824.03;2070242;84;21110;-71
2021/05/19 04:45:22;;;;;;;15.45;8.28;;;;;;;11.73;74.17;99824.03;2072936;84;21066;-71
2021/05/19 04:48:23;;;;;;;10.00;7.78;;;;;;;12.17;74.67;99821.94;2073497;84;21086;-71
2021/05/19 04:51:26;;;;;;;9.30;7.35;;;;;;;12.76;74.64;99820.51;2073627;84;21451;-71
2021/05/19 04:54:28;;;;;;;10.53;7.60;;;;;;;13.19;73.53;99822.67;2074881;84;21121;-71
2021/05/19 04:57:29;;;;;;;11.22;7.12;;;;;;;13.74;73.42;99822.11;2075840;84;21617;-70
2021/05/19 05:00:32;;;;;;;9.08;7.08;;;;;;;14.28;72.54;99818.77;2079515;84;21111;-68
2021/05/19 05:03:33;;;;;;;9.55;8.03;;;;;;;14.79;72.12;99810.35;2077641;84;21344;-69
2021/05/19 05:06:35;;;;;;;9.20;6.40;;;;;;;15.18;71.11;99813.61;2066646;84;21449;-68
2021/05/19 05:09:37;;;;;;;9.30;6.50;;;;;;;15.54;70.59;99817.74;2042354;85;21159;-67
2021/05/19 05:12:39;;;;;;;11.38;6.10;;;;;;;15.82;69.82;99810.83;2064208;85;21108;-66
2021/05/19 05:15:40;;;;;;;8.68;6.62;;;;;;;16.11;69.31;99820.25;2039452;85;21090;-66
2021/05/19 05:18:43;;;;;;;6.80;5.70;;;;;;;16.45;68.29;99820.95;2060798;85;21073;-67
2021/05/19 05:21:44;;;;;;;8.50;5.22;;;;;;;16.60;67.71;99827.38;2040811;85;21062;-67
2021/05/19 05:24:45;;;;;;;6.20;5.37;;;;;;;16.48;66.35;99829.91;2059990;85;21208;-66
2021/05/19 05:27:47;;;;;;;8.15;5.45;;;;;;;16.10;66.78;99839.17;2020171;86;21103;-67
2021/05/19 05:30:48;;;;;;;9.00;5.70;;;;;;;15.78;66.56;99839.55;1988368;87;21138;-67
2021/05/19 05:33:51;;;;;;;7.05;5.90;;;;;;;16.23;66.81;99849.05;2032114;85;21099;-67
2021/05/19 05:36:52;;;;;;;6.80;5.55;;;;;;;16.72;66.29;99838.23;2057470;85;21108;-67
2021/05/19 05:39:54;;;;;;;6.20;4.85;;;;;;;17.08;65.98;99849.72;2057119;85;21658;-69
2021/05/19 05:42:57;;;;;;;8.08;5.60;;;;;;;17.45;64.87;99843.98;2057691;85;21107;-67
2021/05/19 05:45:58;;;;;;;13.50;5.50;;;;;;;17.54;64.80;99852.61;2057929;85;21144;-70
2021/05/19 05:48:59;;;;;;;6.53;5.83;;;;;;;17.67;64.05;99855.16;2060391;85;21136;-68
2021/05/19 05:52:01;;;;;;;7.28;5.97;;;;;;;17.80;64.13;99851.59;2061135;85;21399;-68
2021/05/19 05:55:03;;;;;;;6.78;5.00;;;;;;;18.05;63.21;99855.58;2059529;85;21153;-68
2021/05/19 05:58:04;;;;;;;5.75;4.92;;;;;;;18.20;62.83;99857.09;2058500;85;21187;-68
2021/05/19 06:01:08;;;;;;;5.65;4.53;;;;;;;18.32;61.58;99853.41;2058117;85;21066;-69
2021/05/19 06:04:09;;;;;;;5.10;4.60;;;;;;;18.40;62.17;99856.86;2058484;84;21139;-70
2021/05/19 06:07:11;;;;;;;7.15;4.65;;;;;;;18.67;61.23;99854.16;2052259;85;21569;-68
2021/05/19 06:10:14;;;;;;;5.95;4.75;;;;;;;18.65;60.56;99866.99;2047246;85;21121;-68
2021/05/19 06:13:15;;;;;;;6.42;4.47;;;;;;;18.81;59.62;99862.91;2045376;85;21054;-68
2021/05/19 06:16:16;;;;;;;5.40;4.42;;;;;;;18.69;59.13;99860.11;2048893;85;21161;-67
2021/05/19 06:19:18;;;;;;;6.10;4.62;;;;;;;18.77;59.09;99863.05;2047720;85;21127;-68
2021/05/19 06:22:19;;;;;;;6.65;4.60;;;;;;;18.92;58.80;99870.70;2045999;85;21132;-66
2021/05/19 06:25:22;;;;;;;4.55;4.03;;;;;;;18.96;58.33;99874.06;2024069;85;21161;-69
2021/05/19 06:28:25;;;;;;;3.77;3.35;;;;;;;19.27;58.16;99876.22;2044066;85;21513;-68
2021/05/19 06:31:26;;;;;;;4.45;3.30;;;;;;;19.40;56.59;99873.84;2048582;85;21094;-68
2021/05/19 06:34:27;;;;;;;6.15;4.20;;;;;;;19.37;56.62;99871.11;2012179;87;21580;-67
2021/05/19 06:37:29;;;;;;;4.35;3.72;;;;;;;19.53;54.00;99874.17;2044637;85;21625;-70
2021/05/19 06:40:31;;;;;;;6.47;4.25;;;;;;;19.52;54.93;99863.94;2047436;85;21091;-68
2021/05/19 06:43:32;;;;;;;5.25;3.90;;;;;;;19.22;54.81;99866.14;2046905;85;21089;-68
2021/05/19 06:46:33;;;;;;;7.28;4.58;;;;;;;18.94;55.27;99865.92;2045492;85;21604;-68
2021/05/19 06:49:35;;;;;;;5.00;3.83;;;;;;;18.68;55.06;99862.51;2044929;85;21202;-67
2021/05/19 06:52:36;;;;;;;5.87;3.67;;;;;;;18.63;54.57;99861.02;2046376;85;21128;-67
2021/05/19 06:55:38;;;;;;;7.22;3.85;;;;;;;18.72;54.39;99869.59;2044836;85;21208;-68
2021/05/19 06:58:40;;;;;;;5.90;3.85;;;;;;;18.61;53.59;99875.19;2044012;85;21108;-66
2021/05/19 07:01:42;;;;;;;5.55;4.03;;;;;;;18.56;53.42;99873.20;2045274;85;21087;-68
2021/05/19 07:04:43;;;;;;;5.42;4.12;;;;;;;18.89;54.37;99869.81;2047302;85;21074;-69
2021/05/19 07:07:46;;;;;;;4.92;3.90;;;;;;;18.75;54.19;99871.35;2048736;85;21087;-75
2021/05/19 07:10:48;;;;;;;6.80;3.85;;;;;;;18.33;53.66;99873.06;2011362;86;21093;-72
2021/05/19 07:13:50;;;;;;;6.67;3.55;;;;;;;18.21;53.89;99870.27;2033598;86;21173;-71
2021/05/19 07:16:56;;;;;;;4.62;3.22;;;;;;;18.45;53.86;99867.77;2031770;86;21133;-70
2021/05/19 07:20:01;;;;;;;7.25;4.08;;;;;;;18.84;53.26;99858.91;2029824;86;21623;-73
2021/05/19 07:23:02;;;;;;;4.85;3.67;;;;;;;19.01;53.90;99866.67;2031801;86;21099;-70
2021/05/19 07:26:04;;;;;;;8.65;3.67;;;;;;;18.81;52.84;99863.72;2032520;86;22103;-72
2021/05/19 07:29:05;;;;;;;5.05;3.50;;;;;;;18.96;52.27;99857.93;2031936;86;21064;-70
2021/05/19 07:32:07;;;;;;;4.22;3.20;;;;;;;19.35;53.20;99858.41;2029892;86;21168;-70
2021/05/19 07:35:10;;;;;;;5.00;3.40;;;;;;;19.65;51.53;99861.07;2033928;85;21476;-72
2021/05/19 07:38:12;;;;;;;4.67;3.30;;;;;;;19.96;52.42;99867.14;2037919;86;21157;-71
2021/05/19 07:41:15;;;;;;;5.55;3.22;;;;;;;20.35;51.97;99863.42;2031199;86;21658;-71
2021/05/19 07:44:16;;;;;;;6.15;3.15;;;;;;;20.44;49.71;99862.53;2036496;86;22306;-70
2021/05/19 07:47:18;;;;;;;5.70;3.08;;;;;;;20.04;48.71;99864.09;2037904;86;21072;-70
2021/05/19 07:50:19;;;;;;;3.70;3.25;;;;;;;20.08;48.75;99864.47;2035225;85;21095;-72
2021/05/19 07:53:23;;;;;;;4.35;3.15;;;;;;;19.99;48.75;99865.36;2031762;86;21129;-69
2021/05/19 07:57:12;;;;;;;5.12;3.65;;;;;;;19.88;49.22;99868.87;2016978;86;21116;-70
2021/05/19 07:59:34;;;;;;;6.08;3.85;;;;;;;19.58;49.09;99860.84;2018247;86;21098;-69
2021/05/19 08:02:37;;;;;;;6.03;3.60;;;;;;;19.23;49.63;99863.77;2041347;85;21627;-69
2021/05/19 08:05:41;;;;;;;4.12;3.37;;;;;;;18.81;49.19;99866.41;2032884;86;21202;-71
2021/05/19 08:08:46;;;;;;;6.20;3.30;;;;;;;18.31;49.48;99862.53;2010141;86;21654;-71
2021/05/19 08:11:50;;;;;;;4.42;3.02;;;;;;;18.00;49.73;99866.69;1989459;87;21648;-69
2021/05/19 08:14:52;;;;;;;4.40;2.90;;;;;;;17.73;49.54;99862.03;1995376;87;21108;-71
2021/05/19 08:17:55;;;;;;;3.10;2.80;;;;;;;17.50;50.70;99866.14;1992789;87;21121;-69
2021/05/19 08:20:56;;;;;;;4.00;2.77;;;;;;;17.42;50.57;99865.88;1994945;87;21071;-69
2021/05/19 08:24:00;;;;;;;4.28;2.40;;;;;;;17.48;50.86;99864.19;1993192;87;21130;-71
2021/05/19 08:27:01;;;;;;;6.53;3.75;;;;;;;17.72;50.61;99861.75;1993615;87;21099;-69
2021/05/19 08:30:12;;;;;;;4.85;3.10;;;;;;;17.60;50.56;99865.67;1997520;87;21075;-69
2021/05/19 08:33:16;;;;;;;5.10;3.10;;;;;;;17.56;51.03;99863.92;1994258;87;21111;-70
2021/05/19 08:36:17;;;;;;;4.00;2.67;;;;;;;17.28;50.96;99867.02;1992591;87;21596;-72
2021/05/19 08:39:20;;;;;;;4.87;2.67;;;;;;;17.03;51.29;99861.11;1984958;87;21099;-77
2021/05/19 08:42:21;;;;;;;5.83;3.10;;;;;;;16.74;51.77;99861.63;1999015;87;21122;-71
2021/05/19 08:45:26;;;;;;;6.83;3.70;;;;;;;16.77;51.67;99862.56;2000627;87;21063;-71
2021/05/19 08:48:31;;;;;;;6.00;3.22;;;;;;;16.57;52.40;99866.12;1994644;87;21118;-69
2021/05/19 08:51:37;;;;;;;6.28;3.70;;;;;;;16.48;52.24;99875.43;1994797;87;21136;-77
2021/05/19 08:54:40;;;;;;;5.05;3.55;;;;;;;16.45;52.93;99874.52;1997750;87;21192;-72
2021/05/19 08:57:43;;;;;;;4.00;3.02;;;;;;;16.55;53.06;99863.34;1995153;87;21463;-77
2021/05/19 09:00:45;;;;;;;6.33;3.77;;;;;;;16.82;53.72;99869.98;1989585;87;21127;-70
2021/05/19 09:04:03;;;;;;;3.60;3.10;;;;;;;17.51;53.95;99863.75;1992384;87;21162;-71
2021/05/19 09:07:10;;;;;;;;;;;;;;;18.04;53.66;99849.89;1993207;86;21663;-71
2021/05/19 09:10:17;;;;;;;5.00;3.58;;;;;;;17.83;52.53;99848.98;1999164;87;20248;-71
2021/05/19 09:13:34;;;;;;;4.08;3.30;;;;;;;17.50;52.74;99861.30;1996342;87;21071;-70
2021/05/19 09:16:36;;;;;;;4.95;3.22;;;;;;;17.19;53.33;99857.07;1995140;87;21136;-72
2021/05/19 09:19:37;;;;;;;5.55;3.40;;;;;;;16.97;53.71;99855.77;1999425;87;21095;-69
2021/05/19 09:22:47;;;;;;;3.47;3.17;;;;;;;17.03;53.12;99861.11;1992751;87;21109;-74
2021/05/19 09:26:12;;;;;;;6.80;4.00;;;;;;;17.36;53.35;99862.73;1995361;87;21098;-71
2021/05/19 09:29:20;;;;;;;4.28;3.40;;;;;;;17.33;52.94;99856.98;1996124;87;21708;-74
2021/05/19 09:32:22;;;;;;;3.62;3.20;;;;;;;17.25;53.45;99860.22;1991400;87;21121;-70
2021/05/19 09:35:23;;;;;;;6.33;3.55;;;;;;;17.13;53.50;99862.48;2000948;87;21246;-71
2021/05/19 09:38:29;;;;;;;6.60;4.00;;;;;;;17.05;53.81;99866.76;1995376;87;21118;-75
2021/05/19 09:41:36;;;;;;;5.97;4.30;;;;;;;16.75;54.08;99863.26;1994243;87;21107;-70
2021/05/19 09:44:37;;;;;;;4.35;3.95;;;;;;;16.45;54.26;99867.00;1982395;87;21081;-70
2021/05/19 09:47:44;;;;;;;4.90;4.10;;;;;;;16.29;55.56;99865.59;1994636;87;21613;-75
2021/05/19 09:50:45;;;;;;;6.42;4.50;;;;;;;16.06;55.07;99862.87;1992639;87;21715;-70
2021/05/19 09:53:47;;;;;;;6.30;4.50;;;;;;;16.04;55.23;99856.08;1993379;87;21121;-70
2021/05/19 09:56:54;;;;;;;5.55;4.40;;;;;;;16.05;55.61;99856.37;1996743;87;21412;-73
2021/05/19 09:59:58;;;;;;;4.78;3.72;;;;;;;16.30;56.33;99856.52;1996154;87;21123;-69
2021/05/19 10:03:01;;;;;;;7.72;3.42;;;;;;;16.90;55.80;99849.11;1995261;87;21620;-69
2021/05/19 10:06:09;;;;;;;4.47;3.30;;;;;;;17.45;55.41;99849.88;1988700;87;21096;-70
2021/05/19 10:09:07;;;;;;;5.67;3.83;;;;;;;17.80;54.93;99851.59;1988641;87;21139;-73
2021/05/19 10:12:21;;;;;;;6.08;4.20;;;;;;;18.01;53.59;99846.31;1984657;88;21753;-71
2021/05/19 10:15:36;;;;;;;6.53;4.08;;;;;;;18.08;53.00;99846.27;1984942;88;21762;-73
2021/05/19 10:18:56;;;;;;;6.80;3.42;;;;;;;18.27;52.83;99839.86;1982998;88;21192;-69
2021/05/19 10:22:04;;;;;;;6.03;4.00;;;;;;;18.35;52.61;99843.56;2008704;87;21629;-71
2021/05/19 10:25:19;;;;;;;6.20;3.17;;;;;;;18.53;52.66;99843.28;2006522;87;21716;-70
2021/05/19 10:28:25;;;;;;;3.85;3.27;;;;;;;18.83;51.58;99837.12;2003740;87;21138;-75
2021/05/19 10:31:41;;;;;;;5.47;3.37;;;;;;;19.08;51.68;99839.67;2002149;87;22233;-70
2021/05/19 10:34:49;;;;;;;3.73;3.43;;;;;;;19.40;51.23;99841.55;2005721;87;21130;-71
2021/05/19 10:37:56;;;;;;;5.97;3.10;;;;;;;19.22;50.49;99843.28;2008783;87;21043;-71
2021/05/19 10:41:00;;;;;;;3.72;2.90;;;;;;;19.01;50.15;99846.50;2006887;87;21113;-72
2021/05/19 10:44:09;;;;;;;4.53;2.92;;;;;;;18.78;50.06;99837.80;2005578;87;21170;-70
2021/05/19 10:47:23;;;;;;;4.72;2.87;;;;;;;18.68;49.97;99841.54;2008165;87;21109;-71
2021/05/19 10:50:50;;;;;;;5.00;3.25;;;;;;;18.63;50.05;99844.89;2006028;87;21068;-69
2021/05/19 10:57:38;;;;;;;2.47;2.20;;;;;;;18.24;49.54;99851.02;2006220;87;21112;-71
2021/05/19 11:00:43;;;;;;;4.37;2.30;;;;;;;17.50;49.14;99863.98;2006359;87;21141;-70
2021/05/19 11:04:19;;;;;;;2.47;1.77;;;;;;;16.57;50.97;99865.30;2007575;87;21086;-70
2021/05/19 11:07:22;;;;;;;4.87;2.47;;;;;;;16.03;52.00;99867.30;2007223;87;21126;-71
2021/05/19 11:10:26;;;;;;;2.70;2.00;;;;;;;15.39;53.01;99870.05;2019264;86;21111;-72
2021/05/19 11:13:28;;;;;;;2.67;2.10;;;;;;;15.07;53.53;99874.33;2018582;86;21052;-69
2021/05/19 11:16:56;;;;;;;3.87;2.17;;;;;;;14.96;54.61;99870.91;2005625;86;21137;-69
2021/05/19 11:19:54;;;;;;;3.25;2.37;;;;;;;15.09;55.84;99866.94;2018888;86;21169;-71
2021/05/19 11:23:01;;;;;;;5.00;2.08;;;;;;;15.30;57.31;99872.63;2038745;85;21605;-71
2021/05/19 11:26:14;;;;;;;2.65;2.10;;;;;;;15.52;55.71;99862.57;2036065;85;21388;-72
2021/05/19 11:29:18;;;;;;;2.77;2.42;;;;;;;15.54;54.92;99861.86;2040110;85;21085;-70
2021/05/19 11:32:23;;;;;;;3.25;1.42;;;;;;;15.60;55.17;99863.70;2039788;85;21104;-72
2021/05/19 11:35:25;;;;;;;4.53;1.67;;;;;;;15.73;53.83;99863.42;2040642;85;21179;-73
2021/05/19 11:38:34;;;;;;;2.05;1.85;;;;;;;15.81;54.70;99855.19;2038660;85;21084;-72
2021/05/19 11:41:35;;;;;;;4.50;1.90;;;;;;;15.91;54.70;99856.94;2042587;85;21117;-71
2021/05/19 11:44:53;;;;;;;1.37;1.25;;;;;;;16.04;54.11;99852.06;2038519;85;21607;-71
2021/05/19 11:47:53;;;;;;;2.52;1.70;;;;;;;16.16;51.43;99851.72;2037259;85;21121;-71
2021/05/19 11:50:57;;;;;;;1.82;1.70;;;;;;;16.34;53.10;99855.09;2040317;85;21136;-74
2021/05/19 11:54:01;;;;;;;2.17;1.55;;;;;;;16.89;53.63;99844.77;2040897;85;21095;-74
2021/05/19 11:57:05;;;;;;;1.95;1.52;;;;;;;17.40;52.11;99845.19;2040251;85;21087;-70
2021/05/19 12:00:08;;;;;;;2.52;1.47;;;;;;;17.64;51.42;99841.37;2022351;85;21138;-71
2021/05/19 12:03:13;;;;;;;3.67;1.57;;;;;;;18.10;50.80;99833.42;2021058;86;21100;-81
2021/05/19 12:06:15;;;;;;;1.60;1.35;;;;;;;17.99;48.78;99837.69;1978251;87;21113;-70
2021/05/19 12:09:18;;;;;;;1.65;1.55;;;;;;;17.73;48.55;99837.89;2061550;85;21091;-73
2021/05/19 12:12:19;;;;;;;1.50;1.40;;;;;;;17.76;48.48;99836.92;2058668;85;21087;-71
2021/05/19 12:15:21;;;;;;;4.05;2.08;;;;;;;17.75;47.34;99832.61;2038673;86;21089;-72
2021/05/19 12:18:27;;;;;;;2.02;1.57;;;;;;;17.97;48.38;99829.02;2037092;86;21162;-74
2021/05/19 12:21:33;;;;;;;1.80;1.52;;;;;;;18.31;47.57;99828.95;2043690;86;21788;-73
2021/05/19 12:24:38;;;;;;;1.72;1.40;;;;;;;18.62;47.45;99829.02;2017612;86;21153;-71
2021/05/19 12:27:43;;;;;;;2.37;1.30;;;;;;;18.77;45.71;99828.92;2054733;85;21075;-70
2021/05/19 12:30:53;;;;;;;2.40;1.60;;;;;;;18.57;41.44;99822.44;2105067;83;21071;-71
2021/05/19 12:34:00;;;;;;;2.37;1.57;;;;;;;18.47;43.24;99828.04;2113290;83;21127;-70
2021/05/19 12:37:02;;;;;;;2.42;2.20;;;;;;;18.36;42.95;99821.05;2103593;83;21064;-72
2021/05/19 12:40:06;;;;;;;1.92;1.82;;;;;;;18.37;45.60;99821.34;2107415;83;22010;-76
2021/05/19 12:43:09;;;;;;;2.75;1.55;;;;;;;18.31;44.45;99824.93;2105623;83;21091;-70
2021/05/19 12:46:14;;;;;;;2.12;1.65;;;;;;;18.19;44.94;99825.88;2102931;83;21087;-75
2021/05/19 12:49:19;;;;;;;1.72;1.52;;;;;;;18.29;45.01;99827.01;2108105;83;21098;-71
2021/05/19 12:52:23;;;;;;;2.52;1.80;;;;;;;18.42;44.58;99826.58;2107673;83;21181;-77
2021/05/19 12:55:36;;;;;;;2.83;1.95;;;;;;;18.29;44.42;99821.64;2104477;83;21067;-70
2021/05/19 12:59:09;;;;;;;3.02;1.95;;;;;;;18.18;43.53;99818.89;2083755;83;21106;-70
2021/05/19 13:02:13;;;;;;;3.77;2.10;;;;;;;18.12;44.99;99824.63;2107075;83;21118;-78
2021/05/19 13:05:29;;;;;;;2.20;1.92;;;;;;;18.12;44.42;99825.97;2109170;83;21289;-74
2021/05/19 13:08:38;;;;;;;2.80;1.92;;;;;;;17.92;44.73;99831.55;2096444;83;21177;-71
2021/05/19 13:12:01;;;;;;;2.33;2.12;;;;;;;17.56;46.23;99834.41;2063255;84;21112;-69
2021/05/19 13:14:58;;;;;;;6.20;1.98;;;;;;;17.21;46.71;99835.42;2061851;84;21119;-73
2021/05/19 13:18:07;;;;;;;3.00;2.55;;;;;;;17.09;47.76;99838.47;2014453;84;21662;-72
2021/05/19 13:24:37;;;;;;;2.47;1.80;;;;;;;16.87;48.25;99850.06;2065862;84;21108;-70
2021/05/19 13:27:46;;;;;;;2.40;1.98;;;;;;;16.73;48.51;99851.44;2065188;84;21605;-72
2021/05/19 13:30:50;;;;;;;3.52;1.55;;;;;;;16.62;49.26;99860.14;2064340;84;21052;-73
2021/05/19 13:37:02;;;;;;;3.87;2.40;;;;;;;16.37;49.22;99856.00;2066706;84;21127;-73
2021/05/19 13:40:05;;;;;;;9.55;2.30;;;;;;;16.35;49.66;99850.84;2067371;84;21082;-71
2021/05/19 13:43:11;;;;;;;3.40;2.22;;;;;;;16.42;49.37;99843.33;2066076;84;21136;-69
2021/05/19 13:46:21;;;;;;;5.65;2.72;;;;;;;16.54;49.75;99838.42;2069687;84;21080;-70
2021/05/19 13:49:33;;;;;;;4.08;2.30;;;;;;;16.55;49.67;99849.43;2066526;84;21073;-73
2021/05/19 13:52:41;;;;;;;5.65;2.67;;;;;;;16.69;49.31;99846.70;2029609;85;22036;-72
2021/05/19 13:55:48;;;;;;;4.62;2.70;;;;;;;16.91;49.17;99851.27;2046752;85;22326;-80
2021/05/19 13:58:53;;;;;;;5.45;2.30;;;;;;;16.87;49.14;99853.56;2052941;85;21133;-72
2021/05/19 14:01:56;;;;;;;2.30;1.98;;;;;;;16.93;50.21;99864.76;2029109;86;21076;-70
2021/05/19 14:04:57;;;;;;;2.12;1.82;;;;;;;16.21;49.72;99861.28;1999344;87;21116;-73
2021/05/19 14:07:59;;;;;;;2.20;1.62;;;;;;;15.74;49.84;99873.92;2067597;84;21102;-77
2021/05/19 14:11:09;;;;;;;1.50;1.20;;;;;;;15.47;50.91;99868.52;2056773;84;21587;-69
2021/05/19 14:14:22;;;;;;;1.37;1.27;;;;;;;15.12;51.53;99874.55;2041629;85;21178;-73
2021/05/19 14:27:02;;;;;;;5.97;2.40;;;;;;;14.19;55.84;99895.97;2041620;85;21066;-74
2021/05/19 14:29:59;;;;;;;4.17;2.22;;;;;;;13.99;55.31;99883.31;2058527;85;21097;-72
2021/05/19 14:33:01;;;;;;;5.80;2.85;;;;;;;13.68;56.08;99871.22;2042213;85;21169;-71
2021/05/19 15:02:26;;;;;;;3.00;2.50;;;;;;;12.84;62.01;99920.23;2041225;85;21106;-73
2021/05/19 15:05:29;;;;;;;5.03;2.80;;;;;;;12.56;63.23;99926.23;2058376;85;22384;-72
2021/05/19 15:08:30;;;;;;;8.85;4.10;;;;;;;12.28;64.10;99931.87;2042571;85;21153;-72
2021/05/19 15:11:33;;;;;;;7.72;3.98;;;;;;;12.02;63.87;99932.27;2074741;84;21109;-71
2021/05/19 15:14:35;;;;;;;10.82;5.62;;;;;;;11.99;64.19;99917.50;2072964;84;21620;-73
2021/05/19 15:17:36;;;;;;;12.60;5.33;;;;;;;12.03;63.56;99911.34;2076562;84;21103;-74